Time;durP1;ratioP1;P1;durP2;ratioP2;P2;SDS_P1;SDS_P2;PMS_P1;PMS_P2;Temp;Humidity;BMP_temperature;BMP_pressure;BME280_temperature;BME280_humidity;BME280_pressure;Samples;Min_cycle;Max_cycle;Signal;HPM_P1;HPM_P2
2022/06/05 00:01:24;;;;;;;0.40;0.40;;;20.60;80.80;;;20.94;63.88;95295.06;4714460;30;20696;-80
2022/06/05 00:04:25;;;;;;;0.40;0.40;;;20.60;80.80;;;20.94;63.74;95294.28;4714498;30;20227;-78
2022/06/05 00:07:29;;;;;;;0.40;0.40;;;20.60;81.10;;;20.95;63.89;95291.34;4713794;30;20212;-79
2022/06/05 00:10:15;;;;;;;0.45;0.45;;;20.70;81.30;;;20.96;63.75;95289.50;4699616;30;20332;-79
2022/06/05 00:13:21;;;;;;;0.40;0.40;;;20.60;81.10;;;20.95;63.82;95287.88;4715771;30;20270;-79
2022/06/05 00:15:49;;;;;;;0.38;0.38;;;20.60;80.60;;;20.91;63.69;95295.56;4702035;30;20813;-80
2022/06/05 00:18:18;;;;;;;0.40;0.40;;;20.60;80.50;;;20.94;63.74;95303.06;4700168;30;20289;-80
2022/06/05 00:20:45;;;;;;;0.47;0.47;;;20.60;80.60;;;20.92;63.43;95297.19;4697543;30;20702;-78
2022/06/05 00:23:13;;;;;;;0.50;0.50;;;20.60;80.70;;;20.93;64.05;95296.16;4699054;30;20227;-79
2022/06/05 00:26:30;;;;;;;0.60;0.60;;;20.60;80.80;;;20.93;63.75;95298.81;4684830;30;20232;-78
2022/06/05 00:29:28;;;;;;;0.30;0.30;;;20.70;81.10;;;20.93;63.91;95303.31;4679370;30;20218;-81
2022/06/05 00:32:46;;;;;;;0.40;0.40;;;20.60;81.10;;;20.92;63.64;95299.84;4717563;30;20229;-79
2022/06/05 00:35:17;;;;;;;0.50;0.50;;;20.60;80.90;;;20.93;63.59;95304.16;4716149;30;20235;-82
2022/06/05 00:37:44;;;;;;;0.40;0.40;;;20.70;80.70;;;20.94;63.71;95302.28;4706017;30;20228;-79
2022/06/05 00:40:33;;;;;;;0.40;0.40;;;20.60;80.50;;;20.93;63.76;95298.00;4699992;30;20225;-78
2022/06/05 00:43:04;;;;;;;0.40;0.40;;;20.60;80.70;;;20.94;64.13;95294.28;4698876;30;20196;-81
2022/06/05 00:45:32;;;;;;;0.30;0.30;;;20.70;80.60;;;20.95;63.24;95295.88;4700514;30;20312;-78
2022/06/05 00:48:00;;;;;;;0.40;0.40;;;20.70;80.50;;;20.95;63.59;95293.22;4693758;30;20701;-78
2022/06/05 00:50:32;;;;;;;0.35;0.35;;;20.70;80.60;;;20.97;63.99;95287.63;4698596;30;20247;-79
2022/06/05 00:53:03;;;;;;;0.40;0.40;;;20.60;80.70;;;20.98;63.57;95289.25;4698639;30;20219;-79
2022/06/05 00:55:39;;;;;;;0.40;0.40;;;20.60;80.70;;;20.98;63.83;95278.59;4698587;30;20228;-78
2022/06/05 00:58:06;;;;;;;0.40;0.40;;;20.70;80.70;;;20.99;63.62;95281.00;4708599;30;20238;-81
2022/06/05 01:00:39;;;;;;;0.50;0.50;;;20.70;80.60;;;20.99;63.78;95286.31;4712900;30;20241;-81
2022/06/05 01:03:10;;;;;;;0.30;0.30;;;20.70;80.60;;;21.00;63.44;95290.59;4727587;30;20217;-79
2022/06/05 01:05:38;;;;;;;0.40;0.40;;;20.70;80.60;;;21.02;63.17;95287.69;4727216;30;20318;-78
2022/06/05 01:08:08;;;;;;;0.40;0.40;;;20.70;80.50;;;21.00;63.60;95284.47;4708527;30;20218;-78
2022/06/05 01:10:55;;;;;;;0.50;0.50;;;20.70;80.50;;;20.98;63.67;95284.72;4684484;30;20236;-81
2022/06/05 01:13:43;;;;;;;0.40;0.40;;;20.70;80.60;;;20.95;63.77;95287.88;4712850;30;20618;-81
2022/06/05 01:16:27;;;;;;;0.50;0.50;;;20.70;80.50;;;20.92;63.77;95297.19;4706479;30;20236;-79
2022/06/05 01:19:06;;;;;;;0.40;0.40;;;20.70;80.40;;;20.93;63.71;95295.31;4706022;30;20483;-81
2022/06/05 01:22:01;;;;;;;0.40;0.40;;;20.70;80.70;;;20.91;63.91;95281.41;4698362;30;20209;-79
2022/06/05 01:24:52;;;;;;;0.30;0.30;;;20.60;80.60;;;20.92;63.53;95277.69;4698395;30;20274;-78
2022/06/05 01:27:26;;;;;;;0.45;0.45;;;20.70;80.70;;;20.91;63.79;95284.09;4703498;30;20697;-78
2022/06/05 01:30:12;;;;;;;0.40;0.40;;;20.60;80.70;;;20.91;63.76;95279.56;4699597;30;20695;-78
2022/06/05 01:32:49;;;;;;;0.40;0.40;;;20.60;80.80;;;20.93;63.79;95271.31;4714819;30;20248;-79
2022/06/05 01:35:41;;;;;;;0.40;0.40;;;20.70;80.90;;;20.94;63.84;95271.06;4700101;30;20240;-79
2022/06/05 01:38:20;;;;;;;0.50;0.50;;;20.60;80.80;;;20.91;63.46;95263.59;4717731;30;20223;-81
2022/06/05 01:40:53;;;;;;;0.40;0.40;;;20.60;80.70;;;20.97;63.69;95271.63;4729920;30;20230;-81
2022/06/05 01:43:28;;;;;;;0.60;0.60;;;20.60;80.70;;;20.98;63.57;95279.38;4725772;30;20205;-79
2022/06/05 01:46:18;;;;;;;0.47;0.47;;;20.70;80.60;;;20.98;63.66;95282.03;4686250;30;20300;-81
2022/06/05 01:49:12;;;;;;;0.40;0.40;;;20.70;80.80;;;20.97;63.77;95272.47;4692395;30;20214;-79
2022/06/05 01:52:10;;;;;;;0.40;0.40;;;20.70;80.70;;;20.96;63.87;95265.50;4698194;30;20230;-78
2022/06/05 01:55:10;;;;;;;0.40;0.40;;;20.70;80.70;;;20.94;63.57;95265.72;4711279;30;20283;-78
2022/06/05 01:57:38;;;;;;;0.40;0.40;;;20.70;80.70;;;20.95;63.56;95263.88;4697397;30;20220;-79
2022/06/05 02:00:18;;;;;;;0.40;0.40;;;20.80;80.70;;;20.99;63.82;95264.19;4669226;30;20263;-79
2022/06/05 02:03:02;;;;;;;0.50;0.50;;;20.70;80.70;;;20.97;63.97;95267.13;4682997;30;20610;-78
2022/06/05 02:06:07;;;;;;;0.40;0.40;;;20.70;80.60;;;20.96;63.67;95270.84;4683698;30;20227;-78
2022/06/05 02:09:03;;;;;;;0.30;0.30;;;20.70;80.70;;;20.95;64.10;95272.69;4701627;30;20227;-77
2022/06/05 02:11:33;;;;;;;0.40;0.40;;;20.70;80.70;;;20.98;63.56;95266.03;4714008;30;20722;-77
2022/06/05 02:14:05;;;;;;;0.40;0.40;;;20.70;80.60;;;21.00;63.87;95257.81;4669377;30;20621;-80
2022/06/05 02:16:36;;;;;;;0.50;0.50;;;20.70;80.60;;;21.03;63.76;95259.97;4692249;30;20286;-80
2022/06/05 02:19:09;;;;;;;0.45;0.45;;;20.70;80.70;;;21.02;64.06;95269.03;4708426;30;20237;-80
2022/06/05 02:21:38;;;;;;;0.40;0.40;;;20.70;80.70;;;21.01;63.64;95252.22;4713410;30;20304;-79
2022/06/05 02:24:08;;;;;;;0.40;0.40;;;20.70;80.60;;;21.03;63.99;95247.47;4711771;30;20580;-80
2022/06/05 02:26:36;;;;;;;0.40;0.40;;;20.70;80.60;;;21.00;63.90;95250.63;4697252;30;20218;-80
2022/06/05 02:29:15;;;;;;;0.40;0.40;;;20.70;80.70;;;21.04;63.92;95251.72;4683511;30;20216;-80
2022/06/05 02:32:09;;;;;;;0.40;0.40;;;20.70;80.80;;;21.04;63.82;95254.38;4705080;30;20210;-81
2022/06/05 02:35:22;;;;;;;0.40;0.40;;;20.70;80.80;;;21.03;63.81;95246.63;4712156;30;20339;-79
2022/06/05 02:38:10;;;;;;;0.50;0.50;;;20.70;80.80;;;21.04;64.08;95241.03;4715857;30;20220;-80
2022/06/05 02:40:53;;;;;;;0.40;0.40;;;20.80;80.80;;;21.04;63.95;95246.38;4697499;30;20239;-79
2022/06/05 02:44:32;;;;;;;0.50;0.50;;;20.80;80.80;;;21.03;63.83;95244.78;4697753;30;20628;-81
2022/06/05 02:47:16;;;;;;;0.43;0.43;;;20.80;80.90;;;21.02;63.87;95248.50;4707443;30;20201;-81
2022/06/05 02:50:12;;;;;;;0.40;0.40;;;20.80;80.70;;;21.01;64.04;95249.56;4709719;30;20226;-80
2022/06/05 02:52:41;;;;;;;0.40;0.40;;;20.80;80.80;;;21.01;63.96;95243.44;4709114;30;20310;-80
2022/06/05 02:55:16;;;;;;;0.30;0.30;;;20.80;80.70;;;21.07;63.78;95247.75;4710455;30;20224;-81
2022/06/05 02:57:44;;;;;;;0.40;0.40;;;20.80;80.80;;;21.08;63.75;95247.50;4708483;30;20213;-81
2022/06/05 03:00:23;;;;;;;0.40;0.40;;;20.80;80.80;;;21.06;63.87;95244.28;4713426;30;20235;-81
2022/06/05 03:05:38;;;;;;;0.40;0.40;;;20.80;80.80;;;21.08;64.16;95258.19;4720418;30;20236;-80
2022/06/05 03:08:08;;;;;;;0.40;0.40;;;20.80;80.70;;;21.06;64.26;95259.47;4697882;30;20222;-80
2022/06/05 03:10:35;;;;;;;0.50;0.50;;;20.80;80.60;;;21.05;64.19;95264.00;4696365;30;20263;-80
2022/06/05 03:13:02;;;;;;;0.40;0.40;;;20.80;80.60;;;21.05;63.73;95261.31;4700615;30;20231;-81
2022/06/05 03:15:30;;;;;;;0.40;0.40;;;20.80;80.60;;;21.04;64.08;95258.91;4699045;30;20246;-81
2022/06/05 03:17:57;;;;;;;0.40;0.40;;;20.80;80.60;;;21.00;63.58;95263.94;4692555;30;20213;-80
2022/06/05 03:20:25;;;;;;;0.40;0.40;;;20.80;80.50;;;20.90;64.07;95251.28;4707259;30;20243;-81
2022/06/05 03:22:52;;;;;;;0.50;0.50;;;20.80;80.40;;;20.91;63.44;95255.59;4698786;30;20215;-80
2022/06/05 03:25:23;;;;;;;0.40;0.40;;;20.80;80.40;;;20.89;64.19;95259.56;4694734;30;20272;-80
2022/06/05 03:27:54;;;;;;;0.40;0.40;;;20.70;80.30;;;20.86;63.50;95273.38;4684910;30;20207;-80
2022/06/05 03:30:21;;;;;;;0.40;0.40;;;20.70;80.40;;;20.84;64.17;95273.63;4706219;30;20239;-80
2022/06/05 03:32:48;;;;;;;0.47;0.47;;;20.60;80.50;;;20.83;64.27;95277.34;4678992;30;20204;-80
2022/06/05 03:35:16;;;;;;;0.40;0.40;;;20.70;80.70;;;20.81;64.16;95271.44;4697602;30;20592;-81
2022/06/05 03:37:43;;;;;;;0.40;0.40;;;20.60;80.70;;;20.79;63.90;95268.22;4697709;30;20235;-80
2022/06/05 03:40:15;;;;;;;0.40;0.40;;;20.60;80.80;;;20.85;64.08;95283.22;4713207;30;20237;-81
2022/06/05 03:42:43;;;;;;;0.60;0.60;;;20.60;81.00;;;20.86;64.66;95282.19;4705083;30;20210;-80
2022/06/05 03:45:14;;;;;;;0.40;0.40;;;20.60;81.00;;;20.87;64.41;95280.31;4705858;30;20218;-80
2022/06/05 03:47:42;;;;;;;0.43;0.43;;;20.60;81.00;;;20.88;64.71;95272.06;4688938;30;20219;-80
2022/06/05 03:50:11;;;;;;;0.50;0.50;;;20.60;81.00;;;20.87;64.28;95272.31;4699944;30;20222;-81
2022/06/05 03:52:39;;;;;;;0.50;0.50;;;20.60;81.00;;;20.87;64.40;95280.31;4684613;30;20252;-80
2022/06/05 03:55:07;;;;;;;0.40;0.40;;;20.70;81.00;;;20.89;64.07;95272.88;4685132;30;20742;-81
2022/06/05 03:57:34;;;;;;;0.40;0.40;;;20.60;81.00;;;20.92;64.37;95273.19;4701277;30;20215;-81
2022/06/05 04:00:03;;;;;;;0.40;0.40;;;20.70;81.00;;;20.93;64.44;95260.66;4716547;30;20248;-80
2022/06/05 04:02:38;;;;;;;0.40;0.40;;;20.70;81.00;;;20.94;64.48;95248.94;4716897;30;20227;-80
2022/06/05 04:05:07;;;;;;;0.40;0.40;;;20.70;81.00;;;20.93;64.21;95247.31;4702769;30;20224;-81
2022/06/05 04:07:34;;;;;;;0.40;0.40;;;20.70;81.10;;;20.98;64.46;95239.38;4698488;30;20220;-80
2022/06/05 04:10:02;;;;;;;0.40;0.40;;;20.80;81.00;;;20.98;64.63;95243.91;4708238;30;20355;-80
2022/06/05 04:12:29;;;;;;;0.50;0.50;;;20.80;81.20;;;21.04;64.11;95245.59;4728151;30;20264;-80
2022/06/05 04:14:59;;;;;;;0.40;0.40;;;20.80;81.10;;;21.07;64.59;95245.91;4715013;30;20246;-80
2022/06/05 04:17:26;;;;;;;0.40;0.40;;;20.80;81.10;;;21.06;64.66;95244.28;4729161;30;20602;-79
2022/06/05 04:19:53;;;;;;;0.47;0.47;;;20.90;81.00;;;21.09;64.62;95254.47;4684743;30;20245;-81
2022/06/05 04:22:20;;;;;;;0.40;0.40;;;21.00;81.10;;;21.08;64.40;95249.34;4684828;30;20214;-81
2022/06/05 04:24:48;;;;;;;0.40;0.40;;;21.00;80.90;;;21.11;64.42;95244.31;4670081;30;20249;-81
2022/06/05 04:27:15;;;;;;;0.40;0.40;;;20.90;80.90;;;21.06;64.38;95236.28;4701363;30;20227;-81
2022/06/05 04:29:42;;;;;;;0.40;0.40;;;21.00;80.90;;;21.13;64.25;95237.94;4716276;30;20586;-79
2022/06/05 04:32:10;;;;;;;0.50;0.50;;;21.00;80.90;;;21.15;64.62;95239.28;4702018;30;20213;-81
2022/06/05 04:34:37;;;;;;;0.40;0.40;;;21.00;81.00;;;21.16;64.47;95230.25;4715407;30;20253;-80
2022/06/05 04:37:06;;;;;;;0.40;0.40;;;21.00;81.10;;;21.19;64.58;95229.75;4711986;30;20301;-80
2022/06/05 04:39:33;;;;;;;0.40;0.40;;;21.00;81.10;;;21.25;64.82;95222.59;4699160;30;20246;-80
2022/06/05 04:42:00;;;;;;;0.40;0.40;;;21.10;81.20;;;21.26;64.98;95218.88;4698831;30;20789;-81
2022/06/05 04:44:27;;;;;;;0.30;0.30;;;21.10;81.10;;;21.36;64.28;95223.50;4702750;30;20726;-80
2022/06/05 04:46:54;;;;;;;0.50;0.50;;;21.20;81.10;;;21.39;64.65;95209.66;4680003;30;20222;-82
2022/06/05 04:49:21;;;;;;;0.40;0.40;;;21.20;81.00;;;21.41;64.14;95207.53;4684898;30;20672;-82
2022/06/05 04:51:48;;;;;;;0.35;0.35;;;21.30;80.90;;;21.49;64.44;95209.75;4699849;30;20204;-82
2022/06/05 04:54:17;;;;;;;0.38;0.38;;;21.40;80.90;;;21.56;64.17;95212.22;4701130;30;20233;-81
2022/06/05 04:56:44;;;;;;;0.50;0.50;;;21.40;80.90;;;21.61;64.33;95209.63;4714914;30;20307;-81
2022/06/05 04:59:13;;;;;;;0.40;0.40;;;21.50;80.90;;;21.65;64.10;95209.91;4715907;30;20243;-82
2022/06/05 05:01:41;;;;;;;0.40;0.40;;;21.50;80.60;;;21.69;63.98;95211.84;4716245;30;20239;-82
2022/06/05 05:04:14;;;;;;;0.40;0.40;;;21.50;80.60;;;21.71;63.75;95206.22;4713984;30;20238;-82
2022/06/05 05:06:44;;;;;;;0.43;0.43;;;21.60;80.40;;;21.74;63.99;95197.72;4711461;30;20286;-80
2022/06/05 05:09:11;;;;;;;0.38;0.38;;;21.60;80.30;;;21.76;63.85;95206.25;4684598;30;20232;-81
2022/06/05 05:11:39;;;;;;;0.30;0.30;;;21.70;80.30;;;21.80;64.15;95202.03;4685979;30;20700;-82
2022/06/05 05:14:09;;;;;;;0.40;0.40;;;21.80;80.30;;;21.84;63.68;95205.78;4698686;30;20241;-81
2022/06/05 05:16:36;;;;;;;0.40;0.40;;;21.80;80.20;;;21.88;63.48;95203.41;4694151;30;20224;-81
2022/06/05 05:19:07;;;;;;;0.38;0.38;;;21.80;80.10;;;21.91;63.36;95197.59;4703328;30;20232;-81
2022/06/05 05:21:36;;;;;;;0.30;0.30;;;21.80;80.00;;;21.96;63.73;95197.59;4698864;30;20217;-80
2022/06/05 05:24:07;;;;;;;0.50;0.50;;;21.90;80.00;;;21.97;63.47;95195.72;4698480;30;20355;-81
2022/06/05 05:26:35;;;;;;;0.47;0.47;;;21.90;79.80;;;22.00;63.54;95193.34;4698939;30;20508;-81
2022/06/05 05:29:04;;;;;;;0.30;0.30;;;22.00;79.80;;;22.01;62.72;95202.19;4714935;30;20226;-81
2022/06/05 05:31:40;;;;;;;0.40;0.40;;;22.00;79.30;;;21.98;62.83;95202.69;4712110;30;20212;-81
2022/06/05 05:34:09;;;;;;;0.50;0.50;;;22.00;79.00;;;21.93;62.93;95197.31;4684218;30;20361;-81
2022/06/05 05:36:37;;;;;;;0.40;0.40;;;22.00;79.10;;;21.92;62.76;95199.16;4697886;30;20691;-80
2022/06/05 05:42:05;;;;;;;0.50;0.50;;;21.90;79.20;;;21.94;63.20;95209.63;4696705;30;20200;-80
2022/06/05 05:44:33;;;;;;;0.43;0.43;;;21.90;79.30;;;21.97;63.36;95217.09;4697582;30;20235;-81
2022/06/05 05:47:02;;;;;;;0.40;0.40;;;21.90;79.30;;;22.01;63.16;95227.03;4692472;30;20212;-82
2022/06/05 05:49:29;;;;;;;0.40;0.40;;;21.90;79.30;;;22.03;62.90;95224.91;4698994;30;20282;-81
2022/06/05 05:51:56;;;;;;;0.40;0.40;;;22.00;79.40;;;22.09;62.71;95225.72;4713520;30;20207;-82
2022/06/05 05:54:24;;;;;;;0.40;0.40;;;22.00;80.10;;;22.15;62.65;95221.22;4728293;30;20291;-81
2022/06/05 05:56:51;;;;;;;0.40;0.40;;;22.10;79.30;;;22.18;62.59;95218.03;4712343;30;20208;-80
2022/06/05 05:59:19;;;;;;;0.40;0.40;;;22.10;79.10;;;22.21;62.11;95210.31;4714006;30;20726;-81
2022/06/05 06:01:47;;;;;;;0.40;0.40;;;22.20;78.80;;;22.24;61.99;95211.69;4715072;30;20216;-81
2022/06/05 06:04:16;;;;;;;0.40;0.40;;;22.20;78.50;;;22.26;62.07;95212.22;4715879;30;20253;-81
2022/06/05 06:06:46;;;;;;;0.30;0.30;;;22.30;78.50;;;22.28;61.98;95214.66;4714155;30;20239;-80
2022/06/05 06:09:14;;;;;;;0.40;0.40;;;22.30;78.30;;;22.29;62.07;95218.91;4715678;30;20625;-81
2022/06/05 06:11:41;;;;;;;0.50;0.50;;;22.30;78.40;;;22.28;62.08;95210.09;4698014;30;20216;-82
2022/06/05 06:14:09;;;;;;;0.40;0.40;;;22.30;78.40;;;22.28;61.62;95201.28;4698009;30;20241;-81
2022/06/05 06:16:36;;;;;;;0.40;0.40;;;22.30;77.80;;;22.23;61.34;95200.16;4676663;30;20220;-81
2022/06/05 06:19:04;;;;;;;0.43;0.43;;;22.30;77.60;;;22.25;61.37;95202.56;4716378;30;20663;-81
2022/06/05 06:21:32;;;;;;;0.40;0.40;;;22.30;77.50;;;22.23;61.14;95202.06;4718478;30;20207;-81
2022/06/05 06:24:08;;;;;;;0.40;0.40;;;22.30;77.70;;;22.22;61.65;95205.78;4718585;30;20234;-81
2022/06/05 06:26:35;;;;;;;0.50;0.50;;;22.30;77.90;;;22.22;62.00;95208.47;4717216;30;20214;-81
2022/06/05 06:29:03;;;;;;;0.40;0.40;;;22.20;77.90;;;22.27;61.46;95211.16;4701236;30;20224;-81
2022/06/05 06:31:30;;;;;;;0.40;0.40;;;22.30;77.70;;;22.27;61.10;95197.00;4700920;30;20205;-82
2022/06/05 06:33:57;;;;;;;0.40;0.40;;;22.30;77.60;;;22.29;61.74;95189.50;4689897;30;20220;-80
2022/06/05 06:36:24;;;;;;;0.50;0.50;;;22.30;77.60;;;22.38;61.26;95199.47;4701147;30;20388;-81
2022/06/05 06:39:11;;;;;;;0.50;0.50;;;22.30;77.90;;;22.42;61.06;95188.28;4689011;30;20349;-81
2022/06/05 06:41:39;;;;;;;0.50;0.50;;;22.40;77.70;;;22.51;61.05;95197.41;4686365;30;20212;-79
2022/06/05 06:44:06;;;;;;;0.50;0.50;;;22.50;77.60;;;22.57;61.08;95187.53;4716179;30;20222;-80
2022/06/05 06:46:36;;;;;;;0.57;0.57;;;22.50;77.60;;;22.66;61.09;95185.97;4717723;30;20212;-80
2022/06/05 06:49:04;;;;;;;0.38;0.38;;;22.60;77.50;;;22.69;60.42;95194.28;4715780;30;20252;-80
2022/06/05 06:51:32;;;;;;;0.40;0.40;;;22.70;77.10;;;22.74;60.31;95195.34;4703628;30;20208;-81
2022/06/05 06:53:59;;;;;;;0.40;0.40;;;22.70;76.80;;;22.75;59.84;95188.94;4717975;30;20220;-80
2022/06/05 06:56:30;;;;;;;0.50;0.50;;;22.80;76.60;;;22.74;59.29;95184.66;4716965;30;20664;-81
2022/06/05 06:59:00;;;;;;;0.40;0.40;;;22.80;76.10;;;22.70;59.80;95173.69;4709163;30;20211;-79
2022/06/05 07:01:27;;;;;;;0.40;0.40;;;22.80;76.20;;;22.81;59.63;95179.88;4703883;30;20243;-80
2022/06/05 07:03:55;;;;;;;0.45;0.45;;;22.80;76.30;;;22.86;59.60;95177.22;4719472;30;20230;-80
2022/06/05 07:06:22;;;;;;;0.30;0.30;;;22.90;76.50;;;22.90;59.35;95174.81;4716054;30;20206;-79
2022/06/05 07:08:49;;;;;;;0.40;0.40;;;23.00;76.40;;;22.88;58.90;95172.41;4702928;30;20607;-79
2022/06/05 07:11:19;;;;;;;0.40;0.40;;;23.00;75.60;;;22.90;58.72;95172.97;4717608;30;20247;-80
2022/06/05 07:13:49;;;;;;;0.40;0.40;;;23.00;75.50;;;22.90;58.87;95172.13;4692989;30;20304;-80
2022/06/05 07:16:17;;;;;;;0.40;0.40;;;23.00;75.40;;;22.90;58.83;95167.63;4686889;30;20212;-80
2022/06/05 07:18:44;;;;;;;0.30;0.30;;;23.00;75.60;;;22.94;58.24;95170.56;4700029;30;20686;-80
2022/06/05 07:21:18;;;;;;;0.40;0.40;;;23.00;75.10;;;22.96;58.16;95165.72;4714495;30;20321;-80
2022/06/05 07:23:46;;;;;;;0.40;0.40;;;23.00;74.80;;;23.00;58.34;95167.63;4717860;30;20207;-81
2022/06/05 07:26:20;;;;;;;0.30;0.30;;;23.10;75.00;;;23.05;58.13;95177.53;4693424;30;20220;-79
2022/06/05 07:28:47;;;;;;;0.35;0.35;;;23.20;75.00;;;23.10;58.27;95171.41;4687818;30;20239;-81
2022/06/05 07:31:17;;;;;;;0.40;0.40;;;23.10;75.10;;;23.15;57.76;95174.88;4701828;30;20200;-80
2022/06/05 07:33:45;;;;;;;0.40;0.40;;;23.20;75.00;;;23.24;57.94;95185.09;4710651;30;20310;-81
2022/06/05 07:36:17;;;;;;;0.40;0.40;;;23.20;74.80;;;23.26;57.75;95172.25;4685930;30;20311;-81
2022/06/05 07:38:46;;;;;;;0.30;0.30;;;23.30;74.70;;;23.32;57.08;95171.97;4687152;30;20217;-82
2022/06/05 07:41:23;;;;;;;0.32;0.32;;;23.30;74.20;;;23.34;57.41;95161.81;4685650;30;20776;-80
2022/06/05 07:43:50;;;;;;;0.40;0.40;;;23.30;74.00;;;23.39;56.71;95170.91;4687833;30;20207;-81
2022/06/05 07:46:18;;;;;;;0.47;0.47;;;23.40;74.00;;;23.41;56.67;95161.56;4699971;30;20217;-80
2022/06/05 07:48:46;;;;;;;0.40;0.40;;;23.50;73.60;;;23.48;56.26;95174.69;4720120;30;20212;-80
2022/06/05 07:56:51;;;;;;;0.35;0.35;;;23.50;72.00;;;23.50;54.47;95169.88;4706960;30;20359;-80
2022/06/05 07:59:19;;;;;;;0.30;0.30;;;23.60;71.90;;;23.49;54.57;95165.59;4687865;30;20227;-80
2022/06/05 08:02:03;;;;;;;0.50;0.50;;;23.50;71.70;;;23.51;54.57;95163.44;4712911;30;20216;-80
2022/06/05 08:04:34;;;;;;;0.40;0.40;;;23.50;71.60;;;23.53;54.31;95158.59;4704291;30;20231;-81
2022/06/05 08:07:03;;;;;;;0.30;0.30;;;23.50;71.70;;;23.57;54.79;95157.03;4686201;30;20212;-79
2022/06/05 08:09:34;;;;;;;0.30;0.30;;;23.60;72.10;;;23.60;54.07;95159.16;4715677;30;20239;-80
2022/06/05 08:12:02;;;;;;;0.40;0.40;;;23.60;71.30;;;23.59;53.47;95152.19;4713810;30;20203;-80
2022/06/05 08:14:34;;;;;;;0.40;0.40;;;23.60;70.90;;;23.63;53.79;95145.22;4697362;30;20253;-80
2022/06/05 08:17:08;;;;;;;0.30;0.30;;;23.60;71.20;;;23.70;54.15;95149.50;4699472;30;20223;-79
2022/06/05 08:19:38;;;;;;;0.40;0.40;;;23.70;70.90;;;23.73;53.50;95138.25;4690022;30;20325;-80
2022/06/05 08:22:06;;;;;;;0.50;0.50;;;23.70;71.10;;;23.77;53.97;95145.47;4701865;30;20220;-80
2022/06/05 08:24:34;;;;;;;0.50;0.50;;;23.70;71.20;;;23.83;54.16;95144.41;4692977;30;20246;-80
2022/06/05 08:27:10;;;;;;;0.38;0.38;;;23.80;71.70;;;23.90;53.78;95149.50;4702204;30;20218;-81
2022/06/05 08:29:38;;;;;;;0.30;0.30;;;23.80;71.40;;;23.90;52.96;95141.44;4711123;30;20356;-81
2022/06/05 08:32:07;;;;;;;0.30;0.30;;;23.80;70.60;;;24.00;52.91;95147.88;4702104;30;20295;-81
2022/06/05 08:34:34;;;;;;;0.30;0.30;;;23.90;70.60;;;24.04;53.22;95140.91;4693980;30;20347;-82
2022/06/05 08:43:09;;;;;;;0.60;0.60;;;24.10;70.30;;;24.15;52.59;95150.53;4710162;30;20204;-80
2022/06/05 08:46:05;;;;;;;0.47;0.47;;;24.10;70.50;;;24.20;52.79;95137.09;4705386;30;20298;-81
2022/06/05 08:49:10;;;;;;;0.40;0.40;;;24.10;70.20;;;24.22;52.00;95129.59;4705394;30;20195;-81
2022/06/05 08:52:02;;;;;;;0.30;0.30;;;24.20;70.20;;;24.28;51.39;95131.19;4701051;30;20669;-81
2022/06/05 08:54:42;;;;;;;0.47;0.47;;;24.20;69.10;;;24.30;51.45;95128.22;4684493;30;20330;-79
2022/06/05 08:57:33;;;;;;;0.50;0.50;;;24.30;69.00;;;24.34;51.75;95134.66;4697969;30;20667;-79
2022/06/05 09:00:19;;;;;;;0.40;0.40;;;24.30;69.40;;;24.39;51.81;95136.50;4688036;30;20236;-81
2022/06/05 09:03:10;;;;;;;0.40;0.40;;;24.40;69.00;;;24.48;51.92;95136.75;4695221;30;20786;-78
2022/06/05 09:05:46;;;;;;;0.50;0.50;;;24.40;69.40;;;24.54;52.18;95128.41;4693731;30;20232;-79
2022/06/05 09:08:26;;;;;;;0.40;0.40;;;24.50;69.60;;;24.60;51.88;95124.63;4697973;30;20215;-79
2022/06/05 09:11:34;;;;;;;0.40;0.40;;;24.50;69.40;;;24.68;51.54;95122.47;4698262;30;20237;-82
2022/06/05 09:14:46;;;;;;;0.30;0.30;;;24.70;69.60;;;24.75;51.78;95120.28;4710248;30;20291;-80
2022/06/05 09:17:17;;;;;;;0.50;0.50;;;24.70;69.50;;;24.84;51.65;95112.47;4701172;30;20201;-82
2022/06/05 09:19:46;;;;;;;0.40;0.40;;;24.70;69.00;;;24.91;50.79;95107.59;4688570;30;20707;-82
2022/06/05 09:22:40;;;;;;;0.40;0.40;;;24.80;68.60;;;24.93;51.17;95100.88;4685170;30;20218;-83
2022/06/05 09:25:40;;;;;;;0.40;0.40;;;24.90;69.00;;;25.00;49.86;95095.19;4684020;30;20247;-80
2022/06/05 09:28:46;;;;;;;0.50;0.50;;;24.90;68.00;;;25.03;49.63;95101.88;4684417;30;20313;-82
2022/06/05 09:32:07;;;;;;;0.35;0.35;;;24.90;67.60;;;25.08;50.14;95099.16;4714051;30;20228;-81
2022/06/05 09:34:40;;;;;;;0.40;0.40;;;25.00;67.50;;;25.12;50.18;95100.22;4705728;30;20255;-81
2022/06/05 09:37:35;;;;;;;0.30;0.30;;;25.00;67.50;;;25.19;49.80;95099.88;4698533;30;20287;-81
2022/06/05 09:40:48;;;;;;;0.40;0.40;;;25.10;68.00;;;25.24;49.57;95099.84;4697916;30;20319;-82
2022/06/05 09:43:55;;;;;;;0.30;0.30;;;25.10;68.40;;;25.33;49.99;95092.81;4680833;30;20218;-81
2022/06/05 09:46:48;;;;;;;0.30;0.30;;;25.30;67.60;;;25.39;49.34;95094.38;4716663;30;20210;-82
2022/06/05 09:49:37;;;;;;;0.40;0.40;;;25.30;67.60;;;25.42;48.44;95099.19;4702603;30;20241;-82
2022/06/05 09:52:24;;;;;;;0.40;0.40;;;25.30;66.70;;;25.47;48.29;95101.03;4703402;30;20280;-82
2022/06/05 09:55:30;;;;;;;0.35;0.35;;;25.40;66.80;;;25.51;48.72;95096.72;4687286;30;20276;-81
2022/06/05 10:00:53;;;;;;;0.40;0.40;;;25.50;67.00;;;25.66;48.70;95086.88;4711504;30;20248;-82
2022/06/05 10:03:22;;;;;;;0.43;0.43;;;25.60;66.90;;;25.73;49.06;95081.97;4708600;30;20300;-80
2022/06/05 10:06:26;;;;;;;0.40;0.40;;;25.60;67.30;;;25.82;48.62;95085.66;4718843;30;20259;-81
2022/06/05 10:09:02;;;;;;;0.30;0.30;;;25.70;67.20;;;25.89;48.04;95088.03;4717245;30;20213;-81
2022/06/05 10:11:52;;;;;;;0.50;0.50;;;25.80;66.40;;;25.91;47.85;95075.09;4701560;30;20678;-82
2022/06/05 10:14:46;;;;;;;0.40;0.40;;;25.80;65.80;;;26.01;47.71;95079.56;4701549;30;20231;-82
2022/06/05 10:17:31;;;;;;;0.35;0.35;;;25.90;66.00;;;26.04;47.92;95079.78;4693367;30;20224;-82
2022/06/05 10:20:13;;;;;;;0.30;0.30;;;25.90;66.00;;;26.11;47.49;95081.34;4693751;30;20234;-82
2022/06/05 10:22:46;;;;;;;0.30;0.30;;;26.00;65.70;;;26.11;46.49;95071.41;4703831;30;20246;-82
2022/06/05 10:25:35;;;;;;;0.50;0.50;;;26.00;64.80;;;26.13;46.73;95076.50;4718509;30;20233;-83
2022/06/05 10:28:16;;;;;;;0.50;0.50;;;26.00;65.20;;;26.15;46.92;95082.41;4714539;30;20214;-82
2022/06/05 10:31:03;;;;;;;0.30;0.30;;;26.10;65.30;;;26.23;47.94;95076.38;4688815;30;20586;-83
2022/06/05 10:33:52;;;;;;;0.30;0.30;;;26.10;65.70;;;26.30;47.42;95074.13;4701383;30;20208;-82
2022/06/05 10:36:54;;;;;;;0.30;0.30;;;26.20;65.60;;;26.36;47.27;95067.59;4701813;30;20740;-82
2022/06/05 10:40:13;;;;;;;0.30;0.30;;;26.20;64.70;;;26.44;46.56;95068.88;4710201;30;20233;-82
2022/06/05 10:42:53;;;;;;;0.30;0.30;;;26.30;65.10;;;26.50;46.32;95061.50;4712636;30;20641;-81
2022/06/05 10:45:47;;;;;;;0.30;0.30;;;26.40;64.40;;;26.55;46.11;95060.66;4701833;30;20227;-80
2022/06/05 10:48:47;;;;;;;0.30;0.30;;;26.40;64.60;;;26.62;45.96;95053.03;4701151;30;20623;-82
2022/06/05 10:51:41;;;;;;;0.30;0.30;;;26.50;64.00;;;26.66;45.39;95041.38;4701800;30;20254;-81
2022/06/05 10:54:14;;;;;;;0.30;0.30;;;26.60;64.00;;;26.75;45.41;95043.47;4700865;30;20776;-83
2022/06/05 10:57:11;;;;;;;0.40;0.40;;;26.60;63.80;;;26.77;44.78;95039.38;4702278;30;20233;-82
2022/06/05 10:59:55;;;;;;;0.30;0.30;;;26.70;63.30;;;26.82;44.80;95041.19;4708775;30;20236;-82
2022/06/05 11:03:05;;;;;;;0.32;0.32;;;26.80;63.50;;;26.85;44.71;95035.22;4701828;30;20232;-82
2022/06/05 11:06:00;;;;;;;0.30;0.30;;;26.80;63.40;;;26.91;45.39;95031.34;4714052;30;20621;-82
2022/06/05 11:08:50;;;;;;;0.30;0.30;;;26.80;63.50;;;26.95;44.44;95026.19;4724842;30;20213;-82
2022/06/05 11:14:29;;;;;;;0.35;0.35;;;26.90;62.60;;;27.13;44.91;95013.78;4699871;30;20237;-82
2022/06/05 11:17:31;;;;;;;0.30;0.30;;;27.00;64.30;;;27.28;44.70;95010.03;4698548;30;20219;-81
2022/06/05 11:20:21;;;;;;;0.30;0.30;;;27.10;63.20;;;27.39;43.59;95006.09;4717399;30;20783;-81
2022/06/05 11:22:58;;;;;;;0.35;0.35;;;27.20;62.60;;;27.50;43.49;95014.00;4703263;30;20211;-82
2022/06/05 11:25:56;;;;;;;0.20;0.20;;;27.40;62.10;;;27.57;43.49;95007.13;4716112;30;20246;-82